AAL1821 MDSD-KMIA
Flight info
| Callsign | AAL1821 |
|---|---|
| Flight time | 1h 59m |
| Altitude | 36000 |
| Route | MALVN2J MALVN Y261 MADIZ VIICE2 |
| Aircraft | B738/M-SDE2E3FGHIRWXY/LB1 |
Departure
| Time | 2026-05-08 21:28 |
|---|---|
| Airport | Las Américas International Airport (MDSD) |
Arrival
| Time | 2026-05-08 23:27 |
|---|---|
| Airport | Miami International Airport (KMIA) |
| Time | Latitude | Longitude | Altitude | Speed | Heading |
|---|---|---|---|---|---|
| 2026-05-08 21:04 | 18.43769 | -69.67736 | 67 ft | 0 kts | 251° |
| 2026-05-08 21:20 | 18.43772 | -69.67730 | 67 ft | 3 kts | 253° |
| 2026-05-08 21:21 | 18.43776 | -69.67709 | 59 ft | 3 kts | 264° |
| 2026-05-08 21:21 | 18.43777 | -69.67687 | 67 ft | 3 kts | 279° |
| 2026-05-08 21:21 | 18.43771 | -69.67667 | 67 ft | 3 kts | 303° |
| 2026-05-08 21:21 | 18.43757 | -69.67653 | 68 ft | 3 kts | 338° |
| 2026-05-08 21:22 | 18.43754 | -69.67651 | 67 ft | 1 kts | 341° |
| 2026-05-08 21:24 | 18.43770 | -69.67657 | 68 ft | 6 kts | 340° |
| 2026-05-08 21:24 | 18.43844 | -69.67687 | 68 ft | 16 kts | 339° |
| 2026-05-08 21:24 | 18.43957 | -69.67732 | 68 ft | 17 kts | 339° |
| 2026-05-08 21:25 | 18.44062 | -69.67774 | 68 ft | 14 kts | 339° |
| 2026-05-08 21:25 | 18.44137 | -69.67744 | 68 ft | 13 kts | 67° |
| 2026-05-08 21:25 | 18.44165 | -69.67669 | 68 ft | 8 kts | 68° |
| 2026-05-08 21:25 | 18.44185 | -69.67617 | 68 ft | 7 kts | 68° |
| 2026-05-08 21:26 | 18.44210 | -69.67570 | 59 ft | 8 kts | 42° |
| 2026-05-08 21:26 | 18.44265 | -69.67538 | 68 ft | 10 kts | 26° |
| 2026-05-08 21:26 | 18.44331 | -69.67504 | 68 ft | 10 kts | 26° |
| 2026-05-08 21:26 | 18.44369 | -69.67446 | 68 ft | 9 kts | 79° |
| 2026-05-08 21:27 | 18.44352 | -69.67400 | 63 ft | 6 kts | 151° |
| 2026-05-08 21:27 | 18.44335 | -69.67393 | 68 ft | 1 kts | 162° |
| 2026-05-08 21:27 | 18.44327 | -69.67390 | 68 ft | 1 kts | 161° |
| 2026-05-08 21:27 | 18.44262 | -69.67367 | 62 ft | 35 kts | 161° |
| 2026-05-08 21:28 | 18.43762 | -69.67183 | 67 ft | 115 kts | 161° |
| 2026-05-08 21:28 | 18.42789 | -69.66826 | 100 ft | 177 kts | 161° |
| 2026-05-08 21:28 | 18.41598 | -69.66397 | 872 ft | 186 kts | 161° |
| 2026-05-08 21:28 | 18.40366 | -69.65960 | 1908 ft | 188 kts | 161° |
| 2026-05-08 21:29 | 18.39119 | -69.65494 | 2684 ft | 199 kts | 161° |
| 2026-05-08 21:29 | 18.37661 | -69.65518 | 2885 ft | 229 kts | 199° |
| 2026-05-08 21:29 | 18.36357 | -69.66606 | 3276 ft | 251 kts | 232° |
| 2026-05-08 21:29 | 18.35566 | -69.68310 | 3765 ft | 271 kts | 250° |
| 2026-05-08 21:30 | 18.34995 | -69.70252 | 4459 ft | 281 kts | 253° |
| 2026-05-08 21:30 | 18.34437 | -69.72234 | 5364 ft | 285 kts | 253° |
| 2026-05-08 21:30 | 18.33852 | -69.74248 | 6235 ft | 290 kts | 254° |
| 2026-05-08 21:30 | 18.33253 | -69.76288 | 7100 ft | 293 kts | 257° |
| 2026-05-08 21:31 | 18.33165 | -69.78417 | 7975 ft | 292 kts | 283° |
| 2026-05-08 21:31 | 18.33852 | -69.80417 | 8791 ft | 293 kts | 297° |
| 2026-05-08 21:31 | 18.34440 | -69.81705 | 9295 ft | 297 kts | 298° |
| 2026-05-08 21:31 | 18.35364 | -69.83662 | 10118 ft | 299 kts | 299° |
| 2026-05-08 21:32 | 18.36312 | -69.85663 | 10585 ft | 316 kts | 298° |
| 2026-05-08 21:32 | 18.37329 | -69.87813 | 10777 ft | 340 kts | 298° |
| 2026-05-08 21:32 | 18.38400 | -69.90097 | 11177 ft | 353 kts | 298° |
| 2026-05-08 21:32 | 18.39484 | -69.92433 | 11874 ft | 356 kts | 298° |
| 2026-05-08 21:33 | 18.40567 | -69.94781 | 12643 ft | 357 kts | 298° |
| 2026-05-08 21:33 | 18.41657 | -69.97150 | 13312 ft | 362 kts | 297° |
| 2026-05-08 21:33 | 18.42761 | -69.99552 | 13921 ft | 367 kts | 298° |
| 2026-05-08 21:33 | 18.43877 | -70.01980 | 14557 ft | 370 kts | 298° |
| 2026-05-08 21:34 | 18.45006 | -70.04438 | 15157 ft | 375 kts | 298° |
| 2026-05-08 21:34 | 18.46145 | -70.06918 | 15759 ft | 378 kts | 298° |
| 2026-05-08 21:34 | 18.47299 | -70.09429 | 16371 ft | 382 kts | 298° |
| 2026-05-08 21:34 | 18.48523 | -70.11885 | 16919 ft | 384 kts | 307° |
| 2026-05-08 21:35 | 18.50385 | -70.13929 | 17482 ft | 383 kts | 327° |
| 2026-05-08 21:35 | 18.52667 | -70.15290 | 18083 ft | 382 kts | 336° |
| 2026-05-08 21:35 | 18.55074 | -70.16518 | 18625 ft | 386 kts | 337° |
| 2026-05-08 21:35 | 18.57513 | -70.17724 | 19141 ft | 390 kts | 337° |
| 2026-05-08 21:36 | 18.59980 | -70.18941 | 19660 ft | 392 kts | 336° |
| 2026-05-08 21:36 | 18.62457 | -70.20174 | 20168 ft | 395 kts | 336° |
| 2026-05-08 21:36 | 18.64947 | -70.21426 | 20635 ft | 399 kts | 336° |
| 2026-05-08 21:36 | 18.67456 | -70.22698 | 21099 ft | 402 kts | 336° |
| 2026-05-08 21:37 | 18.69984 | -70.23986 | 21585 ft | 404 kts | 336° |
| 2026-05-08 21:37 | 18.72519 | -70.25283 | 22053 ft | 407 kts | 335° |
| 2026-05-08 21:37 | 18.75080 | -70.26594 | 22458 ft | 410 kts | 335° |
| 2026-05-08 21:37 | 18.77648 | -70.27911 | 22865 ft | 412 kts | 335° |
| 2026-05-08 21:38 | 18.80239 | -70.29240 | 23261 ft | 415 kts | 335° |
| 2026-05-08 21:38 | 18.82838 | -70.30573 | 23637 ft | 417 kts | 335° |
| 2026-05-08 21:38 | 18.85455 | -70.31916 | 24033 ft | 419 kts | 335° |
| 2026-05-08 21:38 | 18.88081 | -70.33263 | 24409 ft | 420 kts | 335° |
| 2026-05-08 21:39 | 18.90683 | -70.34599 | 24732 ft | 423 kts | 335° |
| 2026-05-08 21:39 | 18.93340 | -70.35962 | 25087 ft | 425 kts | 335° |
| 2026-05-08 21:39 | 18.96004 | -70.37331 | 25461 ft | 426 kts | 335° |
| 2026-05-08 21:39 | 18.98675 | -70.38704 | 25810 ft | 428 kts | 335° |
| 2026-05-08 21:40 | 19.01361 | -70.40084 | 26142 ft | 430 kts | 335° |
| 2026-05-08 21:40 | 19.04057 | -70.41470 | 26486 ft | 431 kts | 335° |
| 2026-05-08 21:40 | 19.06761 | -70.42861 | 26807 ft | 433 kts | 335° |
| 2026-05-08 21:41 | 19.12205 | -70.45662 | 27394 ft | 437 kts | 335° |
| 2026-05-08 21:41 | 19.14951 | -70.47077 | 27718 ft | 439 kts | 335° |
| 2026-05-08 21:41 | 19.17698 | -70.48492 | 28032 ft | 440 kts | 335° |
| 2026-05-08 21:41 | 19.20458 | -70.49913 | 28297 ft | 443 kts | 335° |
| 2026-05-08 21:42 | 19.23233 | -70.51345 | 28580 ft | 444 kts | 335° |
| 2026-05-08 21:42 | 19.26015 | -70.52779 | 28875 ft | 446 kts | 335° |
| 2026-05-08 21:42 | 19.28806 | -70.54218 | 29141 ft | 447 kts | 335° |
| 2026-05-08 21:42 | 19.31613 | -70.55667 | 29399 ft | 450 kts | 335° |
| 2026-05-08 21:43 | 19.34392 | -70.57103 | 29659 ft | 450 kts | 335° |
| 2026-05-08 21:43 | 19.37215 | -70.58562 | 29979 ft | 450 kts | 335° |
| 2026-05-08 21:43 | 19.40028 | -70.60017 | 30357 ft | 448 kts | 335° |
| 2026-05-08 21:43 | 19.41837 | -70.61071 | 30607 ft | 448 kts | 329° |
| 2026-05-08 21:44 | 19.43492 | -70.62248 | 30860 ft | 448 kts | 326° |
| 2026-05-08 21:44 | 19.46001 | -70.64187 | 31251 ft | 446 kts | 324° |
| 2026-05-08 21:44 | 19.48472 | -70.66174 | 31612 ft | 445 kts | 324° |
| 2026-05-08 21:44 | 19.50930 | -70.68163 | 31965 ft | 444 kts | 324° |
| 2026-05-08 21:45 | 19.53391 | -70.70137 | 32329 ft | 442 kts | 324° |
| 2026-05-08 21:45 | 19.55854 | -70.72090 | 32682 ft | 441 kts | 324° |
| 2026-05-08 21:45 | 19.58314 | -70.74023 | 33029 ft | 439 kts | 324° |
| 2026-05-08 21:45 | 19.60775 | -70.75946 | 33354 ft | 439 kts | 324° |
| 2026-05-08 21:46 | 19.63233 | -70.77860 | 33707 ft | 438 kts | 324° |
| 2026-05-08 21:46 | 19.65687 | -70.79768 | 33951 ft | 439 kts | 324° |
| 2026-05-08 21:46 | 19.70601 | -70.83590 | 33944 ft | 441 kts | 324° |
| 2026-05-08 21:47 | 19.75514 | -70.87414 | 33943 ft | 434 kts | 324° |
| 2026-05-08 21:47 | 19.80386 | -70.91214 | 33963 ft | 435 kts | 324° |
| 2026-05-08 21:48 | 19.85268 | -70.95027 | 33967 ft | 436 kts | 324° |
| 2026-05-08 21:48 | 19.90158 | -70.98846 | 33956 ft | 436 kts | 324° |
| 2026-05-08 21:49 | 19.95037 | -71.02663 | 33962 ft | 436 kts | 324° |
| 2026-05-08 21:49 | 19.99930 | -71.06490 | 33962 ft | 436 kts | 324° |
| 2026-05-08 21:50 | 20.04811 | -71.10313 | 33968 ft | 436 kts | 324° |
| 2026-05-08 21:50 | 20.09666 | -71.14117 | 33960 ft | 436 kts | 324° |
| 2026-05-08 21:51 | 20.14548 | -71.17947 | 33965 ft | 436 kts | 324° |
| 2026-05-08 21:51 | 20.19435 | -71.21781 | 33964 ft | 436 kts | 324° |
| 2026-05-08 21:52 | 20.24320 | -71.25620 | 33958 ft | 436 kts | 324° |
| 2026-05-08 21:52 | 20.29203 | -71.29459 | 33960 ft | 436 kts | 324° |
| 2026-05-08 21:53 | 20.34090 | -71.33304 | 33964 ft | 436 kts | 324° |
| 2026-05-08 21:53 | 20.38981 | -71.37155 | 33968 ft | 437 kts | 324° |
| 2026-05-08 21:54 | 20.43348 | -71.41615 | 33975 ft | 438 kts | 306° |
| 2026-05-08 21:54 | 20.46729 | -71.47048 | 33967 ft | 439 kts | 304° |
| 2026-05-08 21:55 | 20.50055 | -71.52478 | 33962 ft | 440 kts | 305° |
| 2026-05-08 21:56 | 20.55146 | -71.60645 | 33962 ft | 441 kts | 305° |
| 2026-05-08 21:56 | 20.58566 | -71.66088 | 33968 ft | 441 kts | 305° |
| 2026-05-08 21:57 | 20.61987 | -71.71532 | 33965 ft | 441 kts | 305° |
| 2026-05-08 21:57 | 20.65404 | -71.76977 | 33961 ft | 441 kts | 305° |
| 2026-05-08 21:58 | 20.68818 | -71.82423 | 33961 ft | 441 kts | 305° |
| 2026-05-08 21:58 | 20.72232 | -71.87877 | 33961 ft | 441 kts | 305° |
| 2026-05-08 21:59 | 20.75619 | -71.93291 | 33965 ft | 441 kts | 305° |
| 2026-05-08 21:59 | 20.79022 | -71.98736 | 33961 ft | 440 kts | 305° |
| 2026-05-08 22:00 | 20.82422 | -72.04183 | 33961 ft | 441 kts | 304° |
| 2026-05-08 22:00 | 20.85823 | -72.09634 | 33964 ft | 441 kts | 304° |
| 2026-05-08 22:01 | 20.89228 | -72.15100 | 33967 ft | 441 kts | 304° |
| 2026-05-08 22:01 | 20.92634 | -72.20573 | 33967 ft | 442 kts | 304° |
| 2026-05-08 22:02 | 20.96037 | -72.26044 | 33967 ft | 442 kts | 304° |
| 2026-05-08 22:02 | 20.99422 | -72.31493 | 33963 ft | 442 kts | 304° |
| 2026-05-08 22:03 | 21.02830 | -72.36983 | 33973 ft | 442 kts | 304° |
| 2026-05-08 22:03 | 21.06233 | -72.42472 | 33972 ft | 442 kts | 304° |
| 2026-05-08 22:04 | 21.09635 | -72.47965 | 33974 ft | 442 kts | 304° |
| 2026-05-08 22:04 | 21.13035 | -72.53459 | 33968 ft | 442 kts | 304° |
| 2026-05-08 22:05 | 21.16434 | -72.58957 | 33973 ft | 442 kts | 304° |
| 2026-05-08 22:05 | 21.19833 | -72.64459 | 33973 ft | 443 kts | 304° |
| 2026-05-08 22:06 | 21.23234 | -72.69973 | 33992 ft | 443 kts | 304° |
| 2026-05-08 22:06 | 21.26627 | -72.75481 | 33990 ft | 443 kts | 304° |
| 2026-05-08 22:07 | 21.30018 | -72.80995 | 33994 ft | 443 kts | 304° |
| 2026-05-08 22:07 | 21.33411 | -72.86516 | 33991 ft | 443 kts | 304° |
| 2026-05-08 22:08 | 21.36778 | -72.92000 | 33988 ft | 442 kts | 304° |
| 2026-05-08 22:08 | 21.40164 | -72.97519 | 33991 ft | 442 kts | 304° |
| 2026-05-08 22:09 | 21.43544 | -73.03034 | 33991 ft | 442 kts | 304° |
| 2026-05-08 22:09 | 21.46927 | -73.08559 | 33991 ft | 442 kts | 304° |
| 2026-05-08 22:10 | 21.50279 | -73.14040 | 33989 ft | 441 kts | 303° |
| 2026-05-08 22:10 | 21.53647 | -73.19552 | 33991 ft | 441 kts | 303° |
| 2026-05-08 22:11 | 21.57013 | -73.25065 | 33991 ft | 441 kts | 303° |
| 2026-05-08 22:11 | 21.60377 | -73.30583 | 33990 ft | 441 kts | 303° |
| 2026-05-08 22:12 | 21.63747 | -73.36115 | 33992 ft | 442 kts | 303° |
| 2026-05-08 22:12 | 21.67117 | -73.41655 | 33993 ft | 443 kts | 303° |
| 2026-05-08 22:13 | 21.70467 | -73.47165 | 33991 ft | 443 kts | 303° |
| 2026-05-08 22:13 | 21.73843 | -73.52722 | 33989 ft | 443 kts | 303° |
| 2026-05-08 22:14 | 21.77213 | -73.58275 | 33990 ft | 443 kts | 303° |
| 2026-05-08 22:14 | 21.80580 | -73.63833 | 33992 ft | 443 kts | 303° |
| 2026-05-08 22:15 | 21.83944 | -73.69389 | 33989 ft | 443 kts | 303° |
| 2026-05-08 22:15 | 21.87309 | -73.74952 | 34004 ft | 444 kts | 303° |
| 2026-05-08 22:16 | 21.90687 | -73.80543 | 33976 ft | 446 kts | 303° |
| 2026-05-08 22:16 | 21.94041 | -73.86096 | 33988 ft | 444 kts | 303° |
| 2026-05-08 22:17 | 21.97396 | -73.91661 | 33994 ft | 442 kts | 303° |
| 2026-05-08 22:17 | 22.00742 | -73.97217 | 33982 ft | 442 kts | 303° |
| 2026-05-08 22:18 | 22.04078 | -74.02763 | 33989 ft | 440 kts | 303° |
| 2026-05-08 22:18 | 22.07405 | -74.08295 | 33992 ft | 439 kts | 303° |
| 2026-05-08 22:19 | 22.10725 | -74.13823 | 33991 ft | 439 kts | 303° |
| 2026-05-08 22:19 | 22.13486 | -74.18426 | 33992 ft | 439 kts | 303° |
| 2026-05-08 22:20 | 22.16803 | -74.23965 | 33993 ft | 440 kts | 303° |
| 2026-05-08 22:20 | 22.20125 | -74.29514 | 33992 ft | 440 kts | 302° |
| 2026-05-08 22:21 | 22.23454 | -74.35080 | 33992 ft | 441 kts | 303° |
| 2026-05-08 22:21 | 22.26769 | -74.40625 | 33982 ft | 442 kts | 303° |
| 2026-05-08 22:22 | 22.30107 | -74.46216 | 33981 ft | 443 kts | 303° |
| 2026-05-08 22:22 | 22.33441 | -74.51808 | 33981 ft | 442 kts | 303° |
| 2026-05-08 22:23 | 22.36771 | -74.57398 | 33980 ft | 442 kts | 302° |
| 2026-05-08 22:23 | 22.40101 | -74.62994 | 33981 ft | 442 kts | 302° |
| 2026-05-08 22:24 | 22.43417 | -74.68576 | 33981 ft | 441 kts | 302° |
| 2026-05-08 22:24 | 22.46705 | -74.74112 | 33983 ft | 440 kts | 302° |
| 2026-05-08 22:25 | 22.50009 | -74.79682 | 33979 ft | 439 kts | 302° |
| 2026-05-08 22:25 | 22.53306 | -74.85248 | 33981 ft | 439 kts | 302° |
| 2026-05-08 22:26 | 22.56598 | -74.90810 | 33981 ft | 438 kts | 302° |
| 2026-05-08 22:26 | 22.59861 | -74.96333 | 33982 ft | 438 kts | 302° |
| 2026-05-08 22:27 | 22.63143 | -75.01888 | 33981 ft | 438 kts | 302° |
| 2026-05-08 22:27 | 22.66422 | -75.07445 | 33982 ft | 438 kts | 302° |
| 2026-05-08 22:28 | 22.69693 | -75.12996 | 33979 ft | 437 kts | 302° |
| 2026-05-08 22:28 | 22.72964 | -75.18551 | 33985 ft | 437 kts | 302° |
| 2026-05-08 22:29 | 22.76229 | -75.24105 | 33986 ft | 437 kts | 302° |
| 2026-05-08 22:29 | 22.79494 | -75.29662 | 33982 ft | 437 kts | 302° |
| 2026-05-08 22:30 | 22.82762 | -75.35226 | 33982 ft | 437 kts | 302° |
| 2026-05-08 22:30 | 22.86026 | -75.40795 | 33982 ft | 438 kts | 302° |
| 2026-05-08 22:31 | 22.89289 | -75.46366 | 33981 ft | 437 kts | 302° |
| 2026-05-08 22:31 | 22.92553 | -75.51947 | 33983 ft | 437 kts | 302° |
| 2026-05-08 22:32 | 22.95790 | -75.57486 | 33985 ft | 438 kts | 302° |
| 2026-05-08 22:32 | 22.99052 | -75.63075 | 33984 ft | 437 kts | 302° |
| 2026-05-08 22:33 | 23.02302 | -75.68652 | 33986 ft | 437 kts | 302° |
| 2026-05-08 22:33 | 23.05547 | -75.74224 | 33990 ft | 436 kts | 302° |
| 2026-05-08 22:34 | 23.08791 | -75.79796 | 33990 ft | 436 kts | 302° |
| 2026-05-08 22:34 | 23.12024 | -75.85361 | 33992 ft | 435 kts | 302° |
| 2026-05-08 22:35 | 23.15253 | -75.90923 | 33983 ft | 435 kts | 302° |
| 2026-05-08 22:35 | 23.18452 | -75.96439 | 33981 ft | 435 kts | 302° |
| 2026-05-08 22:36 | 23.21678 | -76.02005 | 33991 ft | 434 kts | 302° |
| 2026-05-08 22:36 | 23.24893 | -76.07561 | 33990 ft | 434 kts | 302° |
| 2026-05-08 22:37 | 23.28101 | -76.13112 | 33992 ft | 433 kts | 302° |
| 2026-05-08 22:37 | 23.31303 | -76.18657 | 33989 ft | 432 kts | 302° |
| 2026-05-08 22:38 | 23.34471 | -76.24153 | 33999 ft | 431 kts | 302° |
| 2026-05-08 22:38 | 23.37652 | -76.29673 | 34001 ft | 430 kts | 302° |
| 2026-05-08 22:39 | 23.40828 | -76.35190 | 34002 ft | 430 kts | 302° |
| 2026-05-08 22:39 | 23.44000 | -76.40709 | 34002 ft | 430 kts | 302° |
| 2026-05-08 22:40 | 23.47173 | -76.46234 | 34000 ft | 430 kts | 302° |
| 2026-05-08 22:40 | 23.50350 | -76.51773 | 34000 ft | 430 kts | 302° |
| 2026-05-08 22:41 | 23.53517 | -76.57301 | 33999 ft | 430 kts | 302° |
| 2026-05-08 22:41 | 23.56686 | -76.62836 | 34003 ft | 430 kts | 301° |
| 2026-05-08 22:42 | 23.59856 | -76.68377 | 33999 ft | 431 kts | 302° |
| 2026-05-08 22:42 | 23.63023 | -76.73924 | 33999 ft | 431 kts | 301° |
| 2026-05-08 22:43 | 23.66193 | -76.79481 | 33998 ft | 431 kts | 301° |
| 2026-05-08 22:43 | 23.69362 | -76.85044 | 34000 ft | 432 kts | 301° |
| 2026-05-08 22:44 | 23.72533 | -76.90613 | 33999 ft | 432 kts | 301° |
| 2026-05-08 22:44 | 23.75696 | -76.96177 | 34000 ft | 431 kts | 301° |
| 2026-05-08 22:45 | 23.78837 | -77.01706 | 34001 ft | 431 kts | 301° |
| 2026-05-08 22:45 | 23.81990 | -77.07265 | 33999 ft | 430 kts | 301° |
| 2026-05-08 22:46 | 23.85137 | -77.12823 | 33998 ft | 430 kts | 301° |
| 2026-05-08 22:46 | 23.88287 | -77.18387 | 34002 ft | 430 kts | 301° |
| 2026-05-08 22:47 | 23.91427 | -77.23939 | 34009 ft | 429 kts | 301° |
| 2026-05-08 22:47 | 23.94560 | -77.29485 | 34010 ft | 429 kts | 301° |
| 2026-05-08 22:48 | 23.97692 | -77.35036 | 34008 ft | 429 kts | 301° |
| 2026-05-08 22:48 | 24.00821 | -77.40588 | 34009 ft | 428 kts | 301° |
| 2026-05-08 22:49 | 24.03942 | -77.46133 | 34011 ft | 427 kts | 301° |
| 2026-05-08 22:49 | 24.08600 | -77.54423 | 34008 ft | 426 kts | 301° |
| 2026-05-08 22:50 | 24.11677 | -77.59902 | 34006 ft | 425 kts | 301° |
| 2026-05-08 22:50 | 24.14764 | -77.65409 | 34008 ft | 424 kts | 301° |
| 2026-05-08 22:51 | 24.17846 | -77.70912 | 34011 ft | 424 kts | 301° |
| 2026-05-08 22:51 | 24.20930 | -77.76428 | 34010 ft | 423 kts | 301° |
| 2026-05-08 22:52 | 24.24011 | -77.81943 | 34008 ft | 424 kts | 301° |
| 2026-05-08 22:52 | 24.27094 | -77.87465 | 34008 ft | 425 kts | 301° |
| 2026-05-08 22:53 | 24.30325 | -77.92861 | 34012 ft | 426 kts | 303° |
| 2026-05-08 22:53 | 24.33675 | -77.98221 | 34012 ft | 426 kts | 303° |
| 2026-05-08 22:54 | 24.37016 | -78.03604 | 34012 ft | 427 kts | 303° |
| 2026-05-08 22:54 | 24.40339 | -78.09008 | 34008 ft | 426 kts | 303° |
| 2026-05-08 22:55 | 24.43649 | -78.14412 | 34015 ft | 426 kts | 303° |
| 2026-05-08 22:55 | 24.46955 | -78.19818 | 34009 ft | 426 kts | 303° |
| 2026-05-08 22:56 | 24.50254 | -78.25216 | 34010 ft | 426 kts | 302° |
| 2026-05-08 22:56 | 24.53549 | -78.30616 | 34009 ft | 425 kts | 302° |
| 2026-05-08 22:57 | 24.56838 | -78.36008 | 34010 ft | 424 kts | 302° |
| 2026-05-08 22:57 | 24.60117 | -78.41394 | 34010 ft | 424 kts | 302° |
| 2026-05-08 22:58 | 24.63368 | -78.46738 | 34008 ft | 423 kts | 302° |
| 2026-05-08 22:58 | 24.66633 | -78.52109 | 34009 ft | 422 kts | 302° |
| 2026-05-08 22:59 | 24.69893 | -78.57481 | 34013 ft | 422 kts | 302° |
| 2026-05-08 22:59 | 24.73147 | -78.62848 | 34020 ft | 422 kts | 302° |
| 2026-05-08 23:00 | 24.76399 | -78.68217 | 33914 ft | 419 kts | 302° |
| 2026-05-08 23:00 | 24.78001 | -78.70862 | 33586 ft | 411 kts | 302° |
| 2026-05-08 23:00 | 24.79578 | -78.73466 | 33184 ft | 406 kts | 302° |
| 2026-05-08 23:01 | 24.81138 | -78.76044 | 32754 ft | 402 kts | 302° |
| 2026-05-08 23:01 | 24.82683 | -78.78597 | 32332 ft | 399 kts | 302° |
| 2026-05-08 23:01 | 24.84214 | -78.81129 | 31913 ft | 395 kts | 302° |
| 2026-05-08 23:01 | 24.85730 | -78.83637 | 31492 ft | 392 kts | 302° |
| 2026-05-08 23:02 | 24.87233 | -78.86126 | 31076 ft | 389 kts | 302° |
| 2026-05-08 23:02 | 24.88725 | -78.88598 | 30663 ft | 386 kts | 302° |
| 2026-05-08 23:02 | 24.90202 | -78.91047 | 30256 ft | 383 kts | 302° |
| 2026-05-08 23:02 | 24.91669 | -78.93480 | 29849 ft | 380 kts | 302° |
| 2026-05-08 23:03 | 24.93125 | -78.95896 | 29443 ft | 376 kts | 302° |
| 2026-05-08 23:03 | 24.94567 | -78.98290 | 29026 ft | 373 kts | 302° |
| 2026-05-08 23:03 | 24.95996 | -79.00665 | 28610 ft | 371 kts | 302° |
| 2026-05-08 23:03 | 24.97396 | -79.02991 | 28204 ft | 368 kts | 302° |
| 2026-05-08 23:04 | 24.98806 | -79.05336 | 27791 ft | 365 kts | 302° |
| 2026-05-08 23:04 | 25.00195 | -79.07646 | 27391 ft | 362 kts | 302° |
| 2026-05-08 23:04 | 25.01589 | -79.09968 | 26978 ft | 360 kts | 302° |
| 2026-05-08 23:04 | 25.02964 | -79.12256 | 26571 ft | 357 kts | 302° |
| 2026-05-08 23:05 | 25.04330 | -79.14532 | 26146 ft | 355 kts | 302° |
| 2026-05-08 23:05 | 25.05686 | -79.16791 | 25741 ft | 352 kts | 302° |
| 2026-05-08 23:05 | 25.06582 | -79.18284 | 25480 ft | 351 kts | 302° |
| 2026-05-08 23:05 | 25.07922 | -79.20518 | 25081 ft | 348 kts | 302° |
| 2026-05-08 23:06 | 25.09250 | -79.22735 | 24700 ft | 345 kts | 302° |
| 2026-05-08 23:06 | 25.10571 | -79.24941 | 24308 ft | 343 kts | 302° |
| 2026-05-08 23:06 | 25.11880 | -79.27126 | 23924 ft | 340 kts | 302° |
| 2026-05-08 23:06 | 25.13178 | -79.29296 | 23549 ft | 338 kts | 302° |
| 2026-05-08 23:07 | 25.14468 | -79.31455 | 23172 ft | 335 kts | 302° |
| 2026-05-08 23:07 | 25.15747 | -79.33594 | 22797 ft | 333 kts | 302° |
| 2026-05-08 23:07 | 25.17020 | -79.35724 | 22425 ft | 331 kts | 302° |
| 2026-05-08 23:07 | 25.18282 | -79.37836 | 22055 ft | 329 kts | 302° |
| 2026-05-08 23:08 | 25.19538 | -79.39940 | 21682 ft | 326 kts | 302° |
| 2026-05-08 23:08 | 25.20783 | -79.42026 | 21315 ft | 325 kts | 302° |
| 2026-05-08 23:08 | 25.22023 | -79.44103 | 20941 ft | 323 kts | 302° |
| 2026-05-08 23:08 | 25.23256 | -79.46171 | 20583 ft | 321 kts | 302° |
| 2026-05-08 23:09 | 25.24480 | -79.48222 | 20212 ft | 319 kts | 302° |
| 2026-05-08 23:09 | 25.25696 | -79.50263 | 19882 ft | 317 kts | 302° |
| 2026-05-08 23:09 | 25.26905 | -79.52292 | 19496 ft | 316 kts | 302° |
| 2026-05-08 23:09 | 25.28110 | -79.54317 | 19141 ft | 314 kts | 302° |
| 2026-05-08 23:10 | 25.29291 | -79.56303 | 18794 ft | 312 kts | 302° |
| 2026-05-08 23:10 | 25.30484 | -79.58309 | 18460 ft | 310 kts | 302° |
| 2026-05-08 23:10 | 25.31668 | -79.60301 | 18091 ft | 310 kts | 302° |
| 2026-05-08 23:10 | 25.32845 | -79.62284 | 17738 ft | 308 kts | 302° |
| 2026-05-08 23:11 | 25.34019 | -79.64261 | 17393 ft | 307 kts | 302° |
| 2026-05-08 23:11 | 25.35185 | -79.66224 | 17057 ft | 305 kts | 302° |
| 2026-05-08 23:11 | 25.36349 | -79.68184 | 16700 ft | 304 kts | 302° |
| 2026-05-08 23:11 | 25.37507 | -79.70138 | 16364 ft | 303 kts | 302° |
| 2026-05-08 23:12 | 25.38658 | -79.72078 | 16033 ft | 301 kts | 301° |
| 2026-05-08 23:12 | 25.39838 | -79.73998 | 15711 ft | 302 kts | 303° |
| 2026-05-08 23:12 | 25.41071 | -79.75910 | 15403 ft | 309 kts | 304° |
| 2026-05-08 23:12 | 25.42322 | -79.77837 | 15081 ft | 315 kts | 304° |
| 2026-05-08 23:13 | 25.43627 | -79.79850 | 14737 ft | 319 kts | 304° |
| 2026-05-08 23:13 | 25.44920 | -79.81856 | 14392 ft | 321 kts | 304° |
| 2026-05-08 23:13 | 25.46217 | -79.83876 | 14043 ft | 322 kts | 303° |
| 2026-05-08 23:13 | 25.47504 | -79.85883 | 13702 ft | 318 kts | 303° |
| 2026-05-08 23:14 | 25.48780 | -79.87873 | 13362 ft | 316 kts | 303° |
| 2026-05-08 23:14 | 25.50029 | -79.89822 | 13030 ft | 313 kts | 303° |
| 2026-05-08 23:14 | 25.51285 | -79.91784 | 12703 ft | 311 kts | 303° |
| 2026-05-08 23:14 | 25.52533 | -79.93735 | 12375 ft | 309 kts | 303° |
| 2026-05-08 23:15 | 25.53773 | -79.95673 | 12050 ft | 308 kts | 303° |
| 2026-05-08 23:15 | 25.55008 | -79.97604 | 11723 ft | 306 kts | 303° |
| 2026-05-08 23:15 | 25.56235 | -79.99524 | 11404 ft | 305 kts | 304° |
| 2026-05-08 23:15 | 25.57458 | -80.01437 | 11077 ft | 304 kts | 304° |
| 2026-05-08 23:16 | 25.58674 | -80.03341 | 10759 ft | 303 kts | 303° |
| 2026-05-08 23:16 | 25.59885 | -80.05238 | 10454 ft | 301 kts | 304° |
| 2026-05-08 23:16 | 25.61090 | -80.07126 | 10117 ft | 299 kts | 304° |
| 2026-05-08 23:16 | 25.62288 | -80.09004 | 9800 ft | 297 kts | 304° |
| 2026-05-08 23:17 | 25.63477 | -80.10868 | 9489 ft | 295 kts | 304° |
| 2026-05-08 23:17 | 25.64658 | -80.12719 | 9181 ft | 293 kts | 304° |
| 2026-05-08 23:17 | 25.65787 | -80.14588 | 8882 ft | 290 kts | 298° |
| 2026-05-08 23:17 | 25.66663 | -80.16585 | 8623 ft | 286 kts | 294° |
| 2026-05-08 23:18 | 25.67471 | -80.18590 | 8362 ft | 283 kts | 293° |
| 2026-05-08 23:18 | 25.68270 | -80.20541 | 8107 ft | 280 kts | 294° |
| 2026-05-08 23:18 | 25.69078 | -80.22490 | 7833 ft | 277 kts | 294° |
| 2026-05-08 23:18 | 25.69891 | -80.24423 | 7554 ft | 275 kts | 295° |
| 2026-05-08 23:19 | 25.70701 | -80.26339 | 7287 ft | 273 kts | 295° |
| 2026-05-08 23:19 | 25.71235 | -80.28337 | 6986 ft | 270 kts | 271° |
| 2026-05-08 23:19 | 25.71164 | -80.30405 | 6743 ft | 267 kts | 266° |
| 2026-05-08 23:19 | 25.71053 | -80.32459 | 6455 ft | 266 kts | 266° |
| 2026-05-08 23:20 | 25.70943 | -80.34499 | 6191 ft | 265 kts | 266° |
| 2026-05-08 23:20 | 25.70840 | -80.36538 | 5936 ft | 264 kts | 266° |
| 2026-05-08 23:20 | 25.70741 | -80.38559 | 5653 ft | 260 kts | 266° |
| 2026-05-08 23:20 | 25.70645 | -80.40544 | 5348 ft | 255 kts | 266° |
| 2026-05-08 23:21 | 25.70552 | -80.42483 | 5027 ft | 249 kts | 266° |
| 2026-05-08 23:21 | 25.70453 | -80.44354 | 4714 ft | 243 kts | 265° |
| 2026-05-08 23:21 | 25.70319 | -80.46207 | 4403 ft | 237 kts | 265° |
| 2026-05-08 23:21 | 25.70283 | -80.47978 | 4100 ft | 225 kts | 279° |
| 2026-05-08 23:22 | 25.70846 | -80.49555 | 3754 ft | 218 kts | 306° |
| 2026-05-08 23:22 | 25.71950 | -80.50653 | 3394 ft | 212 kts | 333° |
| 2026-05-08 23:22 | 25.73350 | -80.50988 | 3086 ft | 204 kts | 12° |
| 2026-05-08 23:22 | 25.74578 | -80.50329 | 3056 ft | 197 kts | 32° |
| 2026-05-08 23:23 | 25.75743 | -80.49544 | 3010 ft | 194 kts | 31° |
| 2026-05-08 23:23 | 25.76888 | -80.48779 | 3000 ft | 191 kts | 35° |
| 2026-05-08 23:23 | 25.77639 | -80.47623 | 2879 ft | 186 kts | 78° |
| 2026-05-08 23:23 | 25.77825 | -80.46220 | 2658 ft | 183 kts | 80° |
| 2026-05-08 23:24 | 25.78016 | -80.44845 | 2427 ft | 179 kts | 84° |
| 2026-05-08 23:24 | 25.78116 | -80.43501 | 2199 ft | 171 kts | 87° |
| 2026-05-08 23:24 | 25.78175 | -80.42218 | 1991 ft | 160 kts | 88° |
| 2026-05-08 23:24 | 25.78221 | -80.41030 | 1775 ft | 152 kts | 88° |
| 2026-05-08 23:25 | 25.78268 | -80.39880 | 1576 ft | 147 kts | 87° |
| 2026-05-08 23:25 | 25.78314 | -80.38750 | 1384 ft | 147 kts | 88° |
| 2026-05-08 23:25 | 25.78360 | -80.37625 | 1189 ft | 146 kts | 88° |
| 2026-05-08 23:25 | 25.78405 | -80.36504 | 999 ft | 145 kts | 88° |
| 2026-05-08 23:26 | 25.78450 | -80.35389 | 808 ft | 145 kts | 88° |
| 2026-05-08 23:26 | 25.78495 | -80.34269 | 625 ft | 147 kts | 88° |
| 2026-05-08 23:26 | 25.78544 | -80.33141 | 421 ft | 146 kts | 87° |
| 2026-05-08 23:26 | 25.78592 | -80.32014 | 237 ft | 145 kts | 88° |
| 2026-05-08 23:27 | 25.78639 | -80.30894 | 37 ft | 146 kts | 87° |
| 2026-05-08 23:27 | 25.78682 | -80.29856 | 16 ft | 112 kts | 88° |
| 2026-05-08 23:27 | 25.78706 | -80.29234 | 18 ft | 55 kts | 87° |
| 2026-05-08 23:27 | 25.78726 | -80.28862 | 17 ft | 29 kts | 80° |
| 2026-05-08 23:28 | 25.78808 | -80.28689 | 15 ft | 23 kts | 40° |
| 2026-05-08 23:28 | 25.78879 | -80.28621 | 15 ft | 9 kts | 41° |
| 2026-05-08 23:28 | 25.78931 | -80.28579 | 16 ft | 9 kts | 35° |
| 2026-05-08 23:28 | 25.78982 | -80.28538 | 16 ft | 9 kts | 36° |
| 2026-05-08 23:29 | 25.79033 | -80.28501 | 16 ft | 10 kts | 32° |
| 2026-05-08 23:29 | 25.79105 | -80.28450 | 16 ft | 14 kts | 32° |
| 2026-05-08 23:29 | 25.79196 | -80.28405 | 18 ft | 14 kts | 358° |
| 2026-05-08 23:29 | 25.79259 | -80.28482 | 17 ft | 14 kts | 299° |
| 2026-05-08 23:30 | 25.79304 | -80.28573 | 16 ft | 13 kts | 298° |
| 2026-05-08 23:30 | 25.79349 | -80.28660 | 15 ft | 13 kts | 300° |
| 2026-05-08 23:30 | 25.79393 | -80.28747 | 14 ft | 13 kts | 299° |
| 2026-05-08 23:30 | 25.79469 | -80.28800 | 16 ft | 15 kts | 357° |
| 2026-05-08 23:31 | 25.79587 | -80.28805 | 19 ft | 20 kts | 358° |
| 2026-05-08 23:31 | 25.79733 | -80.28813 | 19 ft | 21 kts | 357° |
| 2026-05-08 23:31 | 25.79879 | -80.28821 | 20 ft | 21 kts | 358° |
| 2026-05-08 23:31 | 25.79938 | -80.28702 | 20 ft | 20 kts | 88° |
| 2026-05-08 23:32 | 25.79943 | -80.28561 | 17 ft | 15 kts | 87° |
| 2026-05-08 23:32 | 25.79940 | -80.28445 | 15 ft | 12 kts | 117° |
| 2026-05-08 23:32 | 25.79870 | -80.28414 | 16 ft | 11 kts | 175° |
| 2026-05-08 23:32 | 25.79825 | -80.28412 | 17 ft | 1 kts | 177° |
| 2026-05-08 23:33 | 25.79824 | -80.28412 | 17 ft | 0 kts | 177° |